sensor_id;sensor_type;location;lat;lon;timestamp;P1;durP1;ratioP1;P2;durP2;ratioP2
17955;SDS011;27666;51.498;11.966;2023-05-16T00:02:15;10.32;;;7.25;;
17955;SDS011;27666;51.498;11.966;2023-05-16T00:05:03;8.35;;;6.57;;
17955;SDS011;27666;51.498;11.966;2023-05-16T00:07:52;9.20;;;7.25;;
17955;SDS011;27666;51.498;11.966;2023-05-16T00:10:39;7.20;;;6.10;;
17955;SDS011;27666;51.498;11.966;2023-05-16T00:13:25;7.25;;;5.60;;
17955;SDS011;27666;51.498;11.966;2023-05-16T00:16:13;8.00;;;6.90;;
17955;SDS011;27666;51.498;11.966;2023-05-16T00:18:59;8.60;;;6.90;;
17955;SDS011;27666;51.498;11.966;2023-05-16T00:21:46;6.05;;;5.45;;
17955;SDS011;27666;51.498;11.966;2023-05-16T00:24:34;8.35;;;6.95;;
17955;SDS011;27666;51.498;11.966;2023-05-16T00:27:21;8.30;;;6.85;;
17955;SDS011;27666;51.498;11.966;2023-05-16T00:30:08;9.15;;;6.63;;
17955;SDS011;27666;51.498;11.966;2023-05-16T00:32:55;11.32;;;7.20;;
17955;SDS011;27666;51.498;11.966;2023-05-16T00:35:42;10.25;;;7.10;;
17955;SDS011;27666;51.498;11.966;2023-05-16T00:38:29;7.28;;;5.88;;
17955;SDS011;27666;51.498;11.966;2023-05-16T00:41:17;6.20;;;5.30;;
17955;SDS011;27666;51.498;11.966;2023-05-16T00:44:04;7.80;;;6.78;;
17955;SDS011;27666;51.498;11.966;2023-05-16T00:46:50;11.27;;;6.63;;
17955;SDS011;27666;51.498;11.966;2023-05-16T00:49:36;7.55;;;6.18;;
17955;SDS011;27666;51.498;11.966;2023-05-16T00:52:23;7.40;;;5.85;;
17955;SDS011;27666;51.498;11.966;2023-05-16T00:55:10;9.13;;;5.68;;
17955;SDS011;27666;51.498;11.966;2023-05-16T00:57:58;8.25;;;6.20;;
17955;SDS011;27666;51.498;11.966;2023-05-16T01:00:45;6.90;;;5.70;;
17955;SDS011;27666;51.498;11.966;2023-05-16T01:03:32;9.68;;;6.97;;
17955;SDS011;27666;51.498;11.966;2023-05-16T01:06:19;7.85;;;6.35;;
17955;SDS011;27666;51.498;11.966;2023-05-16T01:09:06;9.82;;;7.70;;
17955;SDS011;27666;51.498;11.966;2023-05-16T01:11:55;9.07;;;6.68;;
17955;SDS011;27666;51.498;11.966;2023-05-16T01:14:50;9.32;;;8.10;;
17955;SDS011;27666;51.498;11.966;2023-05-16T01:17:49;6.70;;;6.00;;
17955;SDS011;27666;51.498;11.966;2023-05-16T01:20:42;9.38;;;6.95;;
17955;SDS011;27666;51.498;11.966;2023-05-16T01:23:39;16.67;;;9.50;;
17955;SDS011;27666;51.498;11.966;2023-05-16T01:26:33;10.10;;;8.15;;
17955;SDS011;27666;51.498;11.966;2023-05-16T01:29:21;9.27;;;7.88;;
17955;SDS011;27666;51.498;11.966;2023-05-16T01:32:08;15.70;;;9.48;;
17955;SDS011;27666;51.498;11.966;2023-05-16T01:34:55;13.10;;;10.02;;
17955;SDS011;27666;51.498;11.966;2023-05-16T01:37:44;11.45;;;9.27;;
17955;SDS011;27666;51.498;11.966;2023-05-16T01:40:38;11.65;;;9.27;;
17955;SDS011;27666;51.498;11.966;2023-05-16T01:43:33;12.77;;;10.43;;
17955;SDS011;27666;51.498;11.966;2023-05-16T01:46:25;16.00;;;10.15;;
17955;SDS011;27666;51.498;11.966;2023-05-16T01:49:16;15.93;;;11.80;;
17955;SDS011;27666;51.498;11.966;2023-05-16T01:52:10;16.65;;;10.55;;
17955;SDS011;27666;51.498;11.966;2023-05-16T01:54:59;17.52;;;11.48;;
17955;SDS011;27666;51.498;11.966;2023-05-16T01:57:49;15.02;;;12.95;;
17955;SDS011;27666;51.498;11.966;2023-05-16T02:00:38;14.73;;;11.98;;
17955;SDS011;27666;51.498;11.966;2023-05-16T02:03:25;19.05;;;13.80;;
17955;SDS011;27666;51.498;11.966;2023-05-16T02:06:12;19.40;;;13.30;;
17955;SDS011;27666;51.498;11.966;2023-05-16T02:08:58;16.75;;;12.93;;
17955;SDS011;27666;51.498;11.966;2023-05-16T02:11:45;14.70;;;11.77;;
17955;SDS011;27666;51.498;11.966;2023-05-16T02:14:31;13.85;;;11.05;;
17955;SDS011;27666;51.498;11.966;2023-05-16T02:17:19;17.15;;;13.98;;
17955;SDS011;27666;51.498;11.966;2023-05-16T02:20:07;19.17;;;11.85;;
17955;SDS011;27666;51.498;11.966;2023-05-16T02:22:55;14.38;;;11.27;;
17955;SDS011;27666;51.498;11.966;2023-05-16T02:25:41;17.95;;;13.18;;
17955;SDS011;27666;51.498;11.966;2023-05-16T02:28:28;16.75;;;13.20;;
17955;SDS011;27666;51.498;11.966;2023-05-16T02:31:24;13.45;;;10.48;;
17955;SDS011;27666;51.498;11.966;2023-05-16T02:34:13;16.38;;;12.27;;
17955;SDS011;27666;51.498;11.966;2023-05-16T02:37:00;18.58;;;13.65;;
17955;SDS011;27666;51.498;11.966;2023-05-16T02:39:46;17.85;;;12.30;;
17955;SDS011;27666;51.498;11.966;2023-05-16T02:42:33;19.45;;;14.13;;
17955;SDS011;27666;51.498;11.966;2023-05-16T02:45:19;14.63;;;11.63;;
17955;SDS011;27666;51.498;11.966;2023-05-16T02:48:06;16.55;;;12.43;;
17955;SDS011;27666;51.498;11.966;2023-05-16T02:50:54;16.33;;;12.68;;
17955;SDS011;27666;51.498;11.966;2023-05-16T02:53:41;15.70;;;11.38;;
17955;SDS011;27666;51.498;11.966;2023-05-16T02:56:27;16.25;;;11.00;;
17955;SDS011;27666;51.498;11.966;2023-05-16T02:59:14;14.32;;;11.77;;
17955;SDS011;27666;51.498;11.966;2023-05-16T03:02:00;14.90;;;11.02;;
17955;SDS011;27666;51.498;11.966;2023-05-16T03:04:47;18.70;;;13.55;;
17955;SDS011;27666;51.498;11.966;2023-05-16T03:07:35;16.38;;;11.75;;
17955;SDS011;27666;51.498;11.966;2023-05-16T03:10:22;16.65;;;13.00;;
17955;SDS011;27666;51.498;11.966;2023-05-16T03:13:08;18.92;;;13.40;;
17955;SDS011;27666;51.498;11.966;2023-05-16T03:15:55;20.13;;;14.00;;
17955;SDS011;27666;51.498;11.966;2023-05-16T03:18:41;20.35;;;14.30;;
17955;SDS011;27666;51.498;11.966;2023-05-16T03:21:28;19.57;;;14.30;;
17955;SDS011;27666;51.498;11.966;2023-05-16T03:24:16;22.75;;;14.70;;
17955;SDS011;27666;51.498;11.966;2023-05-16T03:27:03;19.30;;;14.63;;
17955;SDS011;27666;51.498;11.966;2023-05-16T03:29:50;17.93;;;13.63;;
17955;SDS011;27666;51.498;11.966;2023-05-16T03:32:36;20.07;;;14.40;;
17955;SDS011;27666;51.498;11.966;2023-05-16T03:35:23;35.70;;;22.70;;
17955;SDS011;27666;51.498;11.966;2023-05-16T03:38:10;36.28;;;23.02;;
17955;SDS011;27666;51.498;11.966;2023-05-16T03:41:01;20.90;;;14.93;;
17955;SDS011;27666;51.498;11.966;2023-05-16T03:43:48;20.50;;;14.40;;
17955;SDS011;27666;51.498;11.966;2023-05-16T03:46:34;18.50;;;12.07;;
17955;SDS011;27666;51.498;11.966;2023-05-16T03:49:23;18.70;;;14.07;;
17955;SDS011;27666;51.498;11.966;2023-05-16T03:52:11;18.73;;;14.10;;
17955;SDS011;27666;51.498;11.966;2023-05-16T03:54:58;17.67;;;13.90;;
17955;SDS011;27666;51.498;11.966;2023-05-16T03:57:47;23.27;;;13.97;;
17955;SDS011;27666;51.498;11.966;2023-05-16T04:00:33;19.92;;;12.18;;
17955;SDS011;27666;51.498;11.966;2023-05-16T04:03:20;18.33;;;13.48;;
17955;SDS011;27666;51.498;11.966;2023-05-16T04:06:12;18.23;;;13.60;;
17955;SDS011;27666;51.498;11.966;2023-05-16T04:08:58;13.90;;;11.07;;
17955;SDS011;27666;51.498;11.966;2023-05-16T04:11:45;17.92;;;13.52;;
17955;SDS011;27666;51.498;11.966;2023-05-16T04:14:34;21.35;;;14.02;;
17955;SDS011;27666;51.498;11.966;2023-05-16T04:17:20;94.90;;;49.90;;
17955;SDS011;27666;51.498;11.966;2023-05-16T04:20:07;21.25;;;15.63;;
17955;SDS011;27666;51.498;11.966;2023-05-16T04:22:54;22.52;;;13.85;;
17955;SDS011;27666;51.498;11.966;2023-05-16T04:25:41;19.15;;;12.02;;
17955;SDS011;27666;51.498;11.966;2023-05-16T04:28:27;15.13;;;10.65;;
17955;SDS011;27666;51.498;11.966;2023-05-16T04:31:15;17.00;;;11.82;;
17955;SDS011;27666;51.498;11.966;2023-05-16T04:34:02;14.50;;;11.43;;
17955;SDS011;27666;51.498;11.966;2023-05-16T04:36:49;14.68;;;11.32;;
17955;SDS011;27666;51.498;11.966;2023-05-16T04:39:36;14.00;;;9.77;;
17955;SDS011;27666;51.498;11.966;2023-05-16T04:42:23;15.07;;;10.35;;
17955;SDS011;27666;51.498;11.966;2023-05-16T04:45:09;12.73;;;9.60;;
17955;SDS011;27666;51.498;11.966;2023-05-16T04:48:00;13.18;;;9.80;;
17955;SDS011;27666;51.498;11.966;2023-05-16T04:50:47;13.77;;;9.70;;
17955;SDS011;27666;51.498;11.966;2023-05-16T04:53:33;12.13;;;8.90;;
17955;SDS011;27666;51.498;11.966;2023-05-16T04:56:20;13.55;;;9.43;;
17955;SDS011;27666;51.498;11.966;2023-05-16T04:59:07;12.68;;;9.18;;
17955;SDS011;27666;51.498;11.966;2023-05-16T05:01:53;10.15;;;7.90;;
17955;SDS011;27666;51.498;11.966;2023-05-16T05:04:41;12.55;;;7.72;;
17955;SDS011;27666;51.498;11.966;2023-05-16T05:07:27;8.43;;;6.18;;
17955;SDS011;27666;51.498;11.966;2023-05-16T05:10:14;11.07;;;6.28;;
17955;SDS011;27666;51.498;11.966;2023-05-16T05:13:01;6.32;;;5.55;;
17955;SDS011;27666;51.498;11.966;2023-05-16T05:15:48;6.75;;;4.93;;
17955;SDS011;27666;51.498;11.966;2023-05-16T05:18:36;6.32;;;4.28;;
17955;SDS011;27666;51.498;11.966;2023-05-16T05:21:24;6.82;;;4.53;;
17955;SDS011;27666;51.498;11.966;2023-05-16T05:24:11;9.80;;;4.18;;
17955;SDS011;27666;51.498;11.966;2023-05-16T05:26:57;7.30;;;4.13;;
17955;SDS011;27666;51.498;11.966;2023-05-16T05:29:43;7.22;;;4.80;;
17955;SDS011;27666;51.498;11.966;2023-05-16T05:32:30;4.05;;;3.65;;
17955;SDS011;27666;51.498;11.966;2023-05-16T05:35:17;5.55;;;3.65;;
17955;SDS011;27666;51.498;11.966;2023-05-16T05:38:05;7.50;;;4.88;;
17955;SDS011;27666;51.498;11.966;2023-05-16T05:40:51;4.22;;;3.83;;
17955;SDS011;27666;51.498;11.966;2023-05-16T05:43:38;27.92;;;6.40;;
17955;SDS011;27666;51.498;11.966;2023-05-16T05:46:25;8.38;;;4.43;;
17955;SDS011;27666;51.498;11.966;2023-05-16T05:49:12;7.32;;;4.03;;
17955;SDS011;27666;51.498;11.966;2023-05-16T05:51:58;5.22;;;4.20;;
17955;SDS011;27666;51.498;11.966;2023-05-16T05:54:47;5.03;;;4.25;;
17955;SDS011;27666;51.498;11.966;2023-05-16T05:57:34;7.18;;;3.95;;
17955;SDS011;27666;51.498;11.966;2023-05-16T06:00:20;5.18;;;4.38;;
17955;SDS011;27666;51.498;11.966;2023-05-16T06:03:07;4.10;;;3.35;;
17955;SDS011;27666;51.498;11.966;2023-05-16T06:05:53;5.97;;;4.90;;
17955;SDS011;27666;51.498;11.966;2023-05-16T06:08:40;7.07;;;4.22;;
17955;SDS011;27666;51.498;11.966;2023-05-16T06:11:30;6.95;;;4.07;;
17955;SDS011;27666;51.498;11.966;2023-05-16T06:14:19;4.78;;;4.07;;
17955;SDS011;27666;51.498;11.966;2023-05-16T06:17:05;3.58;;;3.08;;
17955;SDS011;27666;51.498;11.966;2023-05-16T06:19:52;5.72;;;4.10;;
17955;SDS011;27666;51.498;11.966;2023-05-16T06:22:39;5.80;;;3.50;;
17955;SDS011;27666;51.498;11.966;2023-05-16T06:25:25;4.93;;;3.60;;
17955;SDS011;27666;51.498;11.966;2023-05-16T06:28:13;5.25;;;3.13;;
17955;SDS011;27666;51.498;11.966;2023-05-16T06:31:00;5.55;;;3.42;;
17955;SDS011;27666;51.498;11.966;2023-05-16T06:33:47;6.20;;;3.30;;
17955;SDS011;27666;51.498;11.966;2023-05-16T06:36:33;3.70;;;2.97;;
17955;SDS011;27666;51.498;11.966;2023-05-16T06:39:20;3.95;;;2.67;;
17955;SDS011;27666;51.498;11.966;2023-05-16T06:42:06;4.82;;;3.00;;
17955;SDS011;27666;51.498;11.966;2023-05-16T06:44:54;3.22;;;2.78;;
17955;SDS011;27666;51.498;11.966;2023-05-16T06:47:41;5.93;;;3.20;;
17955;SDS011;27666;51.498;11.966;2023-05-16T06:50:28;3.00;;;2.70;;
17955;SDS011;27666;51.498;11.966;2023-05-16T06:53:14;3.88;;;2.35;;
17955;SDS011;27666;51.498;11.966;2023-05-16T06:56:01;4.20;;;2.53;;
17955;SDS011;27666;51.498;11.966;2023-05-16T06:58:48;4.75;;;2.60;;
17955;SDS011;27666;51.498;11.966;2023-05-16T07:01:37;4.65;;;2.30;;
17955;SDS011;27666;51.498;11.966;2023-05-16T07:04:23;3.83;;;2.85;;
17955;SDS011;27666;51.498;11.966;2023-05-16T07:07:10;5.45;;;2.67;;
17955;SDS011;27666;51.498;11.966;2023-05-16T07:09:57;2.60;;;2.40;;
17955;SDS011;27666;51.498;11.966;2023-05-16T07:12:43;4.22;;;2.88;;
17955;SDS011;27666;51.498;11.966;2023-05-16T07:15:31;3.72;;;2.70;;
17955;SDS011;27666;51.498;11.966;2023-05-16T07:18:19;3.00;;;2.70;;
17955;SDS011;27666;51.498;11.966;2023-05-16T07:21:06;6.57;;;3.15;;
17955;SDS011;27666;51.498;11.966;2023-05-16T07:23:53;5.20;;;3.17;;
17955;SDS011;27666;51.498;11.966;2023-05-16T07:26:39;6.75;;;3.25;;
17955;SDS011;27666;51.498;11.966;2023-05-16T07:29:25;3.20;;;2.70;;
17955;SDS011;27666;51.498;11.966;2023-05-16T07:32:13;6.70;;;3.33;;
17955;SDS011;27666;51.498;11.966;2023-05-16T07:35:02;3.70;;;2.90;;
17955;SDS011;27666;51.498;11.966;2023-05-16T07:37:49;5.10;;;2.80;;
17955;SDS011;27666;51.498;11.966;2023-05-16T07:40:35;7.55;;;4.90;;
17955;SDS011;27666;51.498;11.966;2023-05-16T07:43:22;3.78;;;2.78;;
17955;SDS011;27666;51.498;11.966;2023-05-16T07:46:08;2.88;;;2.58;;
17955;SDS011;27666;51.498;11.966;2023-05-16T07:48:56;4.30;;;2.50;;
17955;SDS011;27666;51.498;11.966;2023-05-16T07:51:43;3.15;;;2.40;;
17955;SDS011;27666;51.498;11.966;2023-05-16T07:54:31;2.22;;;2.05;;
17955;SDS011;27666;51.498;11.966;2023-05-16T07:57:21;2.22;;;2.08;;
17955;SDS011;27666;51.498;11.966;2023-05-16T08:00:09;3.38;;;2.33;;
17955;SDS011;27666;51.498;11.966;2023-05-16T08:02:56;6.90;;;2.13;;
17955;SDS011;27666;51.498;11.966;2023-05-16T08:05:43;2.83;;;2.15;;
17955;SDS011;27666;51.498;11.966;2023-05-16T08:08:32;1.92;;;1.77;;
17955;SDS011;27666;51.498;11.966;2023-05-16T08:11:20;21.75;;;12.30;;
17955;SDS011;27666;51.498;11.966;2023-05-16T08:14:07;2.28;;;2.08;;
17955;SDS011;27666;51.498;11.966;2023-05-16T08:16:53;2.35;;;1.70;;
17955;SDS011;27666;51.498;11.966;2023-05-16T08:19:39;5.00;;;1.60;;
17955;SDS011;27666;51.498;11.966;2023-05-16T08:22:26;6.63;;;3.63;;
17955;SDS011;27666;51.498;11.966;2023-05-16T08:25:14;6.40;;;4.07;;
17955;SDS011;27666;51.498;11.966;2023-05-16T08:28:00;9.95;;;7.07;;
17955;SDS011;27666;51.498;11.966;2023-05-16T08:30:47;6.88;;;2.05;;
17955;SDS011;27666;51.498;11.966;2023-05-16T08:33:33;5.57;;;1.67;;
17955;SDS011;27666;51.498;11.966;2023-05-16T08:36:20;2.50;;;1.70;;
17955;SDS011;27666;51.498;11.966;2023-05-16T08:39:07;3.03;;;1.88;;
17955;SDS011;27666;51.498;11.966;2023-05-16T08:41:56;4.28;;;1.92;;
17955;SDS011;27666;51.498;11.966;2023-05-16T08:44:43;5.05;;;1.70;;
17955;SDS011;27666;51.498;11.966;2023-05-16T08:47:30;1.85;;;1.52;;
17955;SDS011;27666;51.498;11.966;2023-05-16T08:50:18;2.08;;;1.90;;
17955;SDS011;27666;51.498;11.966;2023-05-16T08:53:06;3.58;;;1.90;;
17955;SDS011;27666;51.498;11.966;2023-05-16T08:55:54;4.65;;;2.45;;
17955;SDS011;27666;51.498;11.966;2023-05-16T08:58:42;5.07;;;3.10;;
17955;SDS011;27666;51.498;11.966;2023-05-16T09:01:30;2.90;;;2.17;;
17955;SDS011;27666;51.498;11.966;2023-05-16T09:04:17;3.85;;;2.22;;
17955;SDS011;27666;51.498;11.966;2023-05-16T09:07:04;20.88;;;9.23;;
17955;SDS011;27666;51.498;11.966;2023-05-16T09:09:50;6.13;;;3.33;;
17955;SDS011;27666;51.498;11.966;2023-05-16T09:12:38;4.85;;;2.38;;
17955;SDS011;27666;51.498;11.966;2023-05-16T09:15:29;6.88;;;2.28;;
17955;SDS011;27666;51.498;11.966;2023-05-16T09:18:17;5.00;;;2.35;;
17955;SDS011;27666;51.498;11.966;2023-05-16T09:21:07;3.75;;;2.75;;
17955;SDS011;27666;51.498;11.966;2023-05-16T09:23:55;4.72;;;2.55;;
17955;SDS011;27666;51.498;11.966;2023-05-16T09:26:41;3.40;;;2.70;;
17955;SDS011;27666;51.498;11.966;2023-05-16T09:29:30;4.90;;;2.72;;
17955;SDS011;27666;51.498;11.966;2023-05-16T09:32:22;4.65;;;2.95;;
17955;SDS011;27666;51.498;11.966;2023-05-16T09:35:09;8.77;;;2.72;;
17955;SDS011;27666;51.498;11.966;2023-05-16T09:38:11;5.95;;;2.88;;
17955;SDS011;27666;51.498;11.966;2023-05-16T09:40:59;6.35;;;2.83;;
17955;SDS011;27666;51.498;11.966;2023-05-16T09:43:47;6.57;;;3.35;;
17955;SDS011;27666;51.498;11.966;2023-05-16T09:46:33;9.80;;;3.08;;
17955;SDS011;27666;51.498;11.966;2023-05-16T09:49:22;7.75;;;3.70;;
17955;SDS011;27666;51.498;11.966;2023-05-16T09:52:09;15.63;;;3.53;;
17955;SDS011;27666;51.498;11.966;2023-05-16T09:54:56;13.15;;;3.50;;
17955;SDS011;27666;51.498;11.966;2023-05-16T09:57:42;16.48;;;8.95;;
17955;SDS011;27666;51.498;11.966;2023-05-16T10:00:29;8.45;;;3.60;;
17955;SDS011;27666;51.498;11.966;2023-05-16T10:03:16;7.60;;;3.45;;
17955;SDS011;27666;51.498;11.966;2023-05-16T10:06:05;10.60;;;3.17;;
17955;SDS011;27666;51.498;11.966;2023-05-16T10:08:52;7.25;;;2.78;;
17955;SDS011;27666;51.498;11.966;2023-05-16T10:11:39;8.52;;;2.80;;
17955;SDS011;27666;51.498;11.966;2023-05-16T10:14:27;7.07;;;3.30;;
17955;SDS011;27666;51.498;11.966;2023-05-16T10:17:15;9.10;;;2.83;;
17955;SDS011;27666;51.498;11.966;2023-05-16T10:20:04;5.68;;;2.63;;
17955;SDS011;27666;51.498;11.966;2023-05-16T10:22:54;6.03;;;2.97;;
17955;SDS011;27666;51.498;11.966;2023-05-16T10:25:43;7.40;;;2.90;;
17955;SDS011;27666;51.498;11.966;2023-05-16T10:28:31;5.25;;;2.80;;
17955;SDS011;27666;51.498;11.966;2023-05-16T10:31:17;10.88;;;3.17;;
17955;SDS011;27666;51.498;11.966;2023-05-16T10:34:06;11.50;;;4.25;;
17955;SDS011;27666;51.498;11.966;2023-05-16T10:36:53;7.03;;;3.17;;
17955;SDS011;27666;51.498;11.966;2023-05-16T10:39:42;8.95;;;3.08;;
17955;SDS011;27666;51.498;11.966;2023-05-16T10:42:30;7.35;;;2.90;;
17955;SDS011;27666;51.498;11.966;2023-05-16T10:45:18;6.60;;;3.20;;
17955;SDS011;27666;51.498;11.966;2023-05-16T10:48:05;13.80;;;3.05;;
17955;SDS011;27666;51.498;11.966;2023-05-16T10:50:54;16.70;;;3.22;;
17955;SDS011;27666;51.498;11.966;2023-05-16T10:53:40;7.68;;;2.90;;
17955;SDS011;27666;51.498;11.966;2023-05-16T10:56:28;11.00;;;3.35;;
17955;SDS011;27666;51.498;11.966;2023-05-16T10:59:21;12.27;;;3.53;;
17955;SDS011;27666;51.498;11.966;2023-05-16T11:02:23;9.60;;;3.00;;
17955;SDS011;27666;51.498;11.966;2023-05-16T11:05:12;8.40;;;3.30;;
17955;SDS011;27666;51.498;11.966;2023-05-16T11:08:04;23.15;;;9.45;;
17955;SDS011;27666;51.498;11.966;2023-05-16T11:10:53;14.55;;;5.10;;
17955;SDS011;27666;51.498;11.966;2023-05-16T11:14:39;11.32;;;2.83;;
17955;SDS011;27666;51.498;11.966;2023-05-16T11:17:37;7.43;;;2.50;;
17955;SDS011;27666;51.498;11.966;2023-05-16T11:20:26;6.70;;;2.50;;
17955;SDS011;27666;51.498;11.966;2023-05-16T11:23:20;5.47;;;2.20;;
17955;SDS011;27666;51.498;11.966;2023-05-16T11:26:08;6.18;;;2.75;;
17955;SDS011;27666;51.498;11.966;2023-05-16T11:28:56;6.63;;;2.45;;
17955;SDS011;27666;51.498;11.966;2023-05-16T11:31:44;5.47;;;2.17;;
17955;SDS011;27666;51.498;11.966;2023-05-16T11:34:35;16.92;;;9.48;;
17955;SDS011;27666;51.498;11.966;2023-05-16T11:37:23;20.27;;;10.57;;
17955;SDS011;27666;51.498;11.966;2023-05-16T11:40:10;8.45;;;2.40;;
17955;SDS011;27666;51.498;11.966;2023-05-16T11:42:58;8.73;;;2.17;;
17955;SDS011;27666;51.498;11.966;2023-05-16T11:45:52;6.07;;;2.63;;
17955;SDS011;27666;51.498;11.966;2023-05-16T11:48:41;20.35;;;3.30;;
17955;SDS011;27666;51.498;11.966;2023-05-16T11:51:30;4.03;;;1.92;;
17955;SDS011;27666;51.498;11.966;2023-05-16T11:54:18;7.88;;;2.60;;
17955;SDS011;27666;51.498;11.966;2023-05-16T11:57:05;15.40;;;2.30;;
17955;SDS011;27666;51.498;11.966;2023-05-16T11:59:52;13.88;;;6.18;;
17955;SDS011;27666;51.498;11.966;2023-05-16T12:02:39;7.43;;;2.10;;
17955;SDS011;27666;51.498;11.966;2023-05-16T12:05:27;7.43;;;2.92;;
17955;SDS011;27666;51.498;11.966;2023-05-16T12:08:17;9.65;;;2.58;;
17955;SDS011;27666;51.498;11.966;2023-05-16T12:11:05;10.55;;;2.80;;
17955;SDS011;27666;51.498;11.966;2023-05-16T12:13:51;12.60;;;3.50;;
17955;SDS011;27666;51.498;11.966;2023-05-16T12:16:38;6.55;;;2.30;;
17955;SDS011;27666;51.498;11.966;2023-05-16T12:19:26;9.63;;;3.20;;
17955;SDS011;27666;51.498;11.966;2023-05-16T12:22:16;8.57;;;2.30;;
17955;SDS011;27666;51.498;11.966;2023-05-16T12:25:17;6.95;;;2.92;;
17955;SDS011;27666;51.498;11.966;2023-05-16T12:28:07;3.20;;;2.10;;
17955;SDS011;27666;51.498;11.966;2023-05-16T12:30:54;5.10;;;2.17;;
17955;SDS011;27666;51.498;11.966;2023-05-16T12:33:40;9.52;;;2.25;;
17955;SDS011;27666;51.498;11.966;2023-05-16T12:36:30;6.88;;;2.40;;
17955;SDS011;27666;51.498;11.966;2023-05-16T12:39:19;13.35;;;2.83;;
17955;SDS011;27666;51.498;11.966;2023-05-16T12:42:06;6.30;;;2.58;;
17955;SDS011;27666;51.498;11.966;2023-05-16T12:44:54;10.80;;;3.15;;
17955;SDS011;27666;51.498;11.966;2023-05-16T12:47:40;6.90;;;3.80;;
17955;SDS011;27666;51.498;11.966;2023-05-16T12:50:27;9.45;;;2.78;;
17955;SDS011;27666;51.498;11.966;2023-05-16T12:53:15;5.32;;;2.35;;
17955;SDS011;27666;51.498;11.966;2023-05-16T12:56:04;6.22;;;2.30;;
17955;SDS011;27666;51.498;11.966;2023-05-16T12:58:51;10.27;;;2.83;;
17955;SDS011;27666;51.498;11.966;2023-05-16T13:01:37;6.53;;;2.60;;
17955;SDS011;27666;51.498;11.966;2023-05-16T13:04:26;7.28;;;2.72;;
17955;SDS011;27666;51.498;11.966;2023-05-16T13:07:12;8.00;;;2.22;;
17955;SDS011;27666;51.498;11.966;2023-05-16T13:10:01;6.78;;;2.20;;
17955;SDS011;27666;51.498;11.966;2023-05-16T13:12:52;7.05;;;2.38;;
17955;SDS011;27666;51.498;11.966;2023-05-16T13:15:41;4.60;;;2.17;;
17955;SDS011;27666;51.498;11.966;2023-05-16T13:18:29;12.40;;;2.88;;
17955;SDS011;27666;51.498;11.966;2023-05-16T13:21:15;7.60;;;2.03;;
17955;SDS011;27666;51.498;11.966;2023-05-16T13:24:02;5.05;;;2.15;;
17955;SDS011;27666;51.498;11.966;2023-05-16T13:26:49;6.40;;;2.28;;
17955;SDS011;27666;51.498;11.966;2023-05-16T13:29:37;8.93;;;2.50;;
17955;SDS011;27666;51.498;11.966;2023-05-16T13:32:24;7.88;;;2.65;;
17955;SDS011;27666;51.498;11.966;2023-05-16T13:35:11;5.30;;;1.90;;
17955;SDS011;27666;51.498;11.966;2023-05-16T13:37:58;6.43;;;2.38;;
17955;SDS011;27666;51.498;11.966;2023-05-16T13:40:44;6.00;;;2.03;;
17955;SDS011;27666;51.498;11.966;2023-05-16T13:43:30;21.25;;;9.88;;
17955;SDS011;27666;51.498;11.966;2023-05-16T13:46:21;22.35;;;11.02;;
17955;SDS011;27666;51.498;11.966;2023-05-16T13:49:08;6.03;;;2.22;;
17955;SDS011;27666;51.498;11.966;2023-05-16T13:51:54;5.90;;;1.83;;
17955;SDS011;27666;51.498;11.966;2023-05-16T13:54:41;6.47;;;2.00;;
17955;SDS011;27666;51.498;11.966;2023-05-16T13:57:28;4.50;;;1.77;;
17955;SDS011;27666;51.498;11.966;2023-05-16T14:00:15;6.60;;;2.00;;
17955;SDS011;27666;51.498;11.966;2023-05-16T14:03:24;9.60;;;3.35;;
17955;SDS011;27666;51.498;11.966;2023-05-16T14:06:11;6.72;;;2.35;;
17955;SDS011;27666;51.498;11.966;2023-05-16T14:08:57;7.55;;;2.70;;
17955;SDS011;27666;51.498;11.966;2023-05-16T14:11:43;5.22;;;2.10;;
17955;SDS011;27666;51.498;11.966;2023-05-16T14:14:30;9.20;;;3.15;;
17955;SDS011;27666;51.498;11.966;2023-05-16T14:17:16;6.90;;;2.30;;
17955;SDS011;27666;51.498;11.966;2023-05-16T14:20:05;10.07;;;3.60;;
17955;SDS011;27666;51.498;11.966;2023-05-16T14:22:54;7.20;;;4.00;;
17955;SDS011;27666;51.498;11.966;2023-05-16T14:25:40;9.55;;;3.42;;
17955;SDS011;27666;51.498;11.966;2023-05-16T14:28:27;7.35;;;3.35;;
17955;SDS011;27666;51.498;11.966;2023-05-16T14:31:14;6.88;;;2.28;;
17955;SDS011;27666;51.498;11.966;2023-05-16T14:34:01;6.03;;;2.53;;
17955;SDS011;27666;51.498;11.966;2023-05-16T14:36:49;6.18;;;1.98;;
17955;SDS011;27666;51.498;11.966;2023-05-16T14:39:35;4.78;;;2.08;;
17955;SDS011;27666;51.498;11.966;2023-05-16T14:42:22;7.95;;;3.05;;
17955;SDS011;27666;51.498;11.966;2023-05-16T14:45:08;7.47;;;1.95;;
17955;SDS011;27666;51.498;11.966;2023-05-16T14:47:56;4.90;;;2.53;;
17955;SDS011;27666;51.498;11.966;2023-05-16T14:50:43;6.50;;;2.10;;
17955;SDS011;27666;51.498;11.966;2023-05-16T14:53:31;5.28;;;1.70;;
17955;SDS011;27666;51.498;11.966;2023-05-16T14:56:18;4.45;;;2.22;;
17955;SDS011;27666;51.498;11.966;2023-05-16T14:59:05;6.55;;;2.00;;
17955;SDS011;27666;51.498;11.966;2023-05-16T15:01:51;5.03;;;2.28;;
17955;SDS011;27666;51.498;11.966;2023-05-16T15:04:38;2.10;;;1.90;;
17955;SDS011;27666;51.498;11.966;2023-05-16T15:07:27;2.72;;;1.50;;
17955;SDS011;27666;51.498;11.966;2023-05-16T15:10:15;4.75;;;1.85;;
17955;SDS011;27666;51.498;11.966;2023-05-16T15:13:02;3.35;;;1.63;;
17955;SDS011;27666;51.498;11.966;2023-05-16T15:15:49;9.93;;;3.50;;
17955;SDS011;27666;51.498;11.966;2023-05-16T15:18:35;3.00;;;1.90;;
17955;SDS011;27666;51.498;11.966;2023-05-16T15:21:22;4.30;;;1.90;;
17955;SDS011;27666;51.498;11.966;2023-05-16T15:24:08;7.38;;;2.10;;
17955;SDS011;27666;51.498;11.966;2023-05-16T15:26:57;5.35;;;2.00;;
17955;SDS011;27666;51.498;11.966;2023-05-16T15:29:44;4.85;;;1.98;;
17955;SDS011;27666;51.498;11.966;2023-05-16T15:32:30;12.82;;;2.53;;
17955;SDS011;27666;51.498;11.966;2023-05-16T15:35:17;5.20;;;2.20;;
17955;SDS011;27666;51.498;11.966;2023-05-16T15:38:04;4.00;;;1.83;;
17955;SDS011;27666;51.498;11.966;2023-05-16T15:40:52;3.50;;;1.80;;
17955;SDS011;27666;51.498;11.966;2023-05-16T15:43:59;6.97;;;2.00;;
17955;SDS011;27666;51.498;11.966;2023-05-16T15:46:46;4.18;;;1.92;;
17955;SDS011;27666;51.498;11.966;2023-05-16T15:49:32;7.75;;;2.15;;
17955;SDS011;27666;51.498;11.966;2023-05-16T15:52:19;6.47;;;4.05;;
17955;SDS011;27666;51.498;11.966;2023-05-16T15:55:07;14.07;;;7.78;;
17955;SDS011;27666;51.498;11.966;2023-05-16T15:57:55;3.90;;;2.15;;
17955;SDS011;27666;51.498;11.966;2023-05-16T16:00:44;4.50;;;1.55;;
17955;SDS011;27666;51.498;11.966;2023-05-16T16:03:31;6.30;;;1.70;;
17955;SDS011;27666;51.498;11.966;2023-05-16T16:06:17;5.40;;;1.85;;
17955;SDS011;27666;51.498;11.966;2023-05-16T16:09:04;5.28;;;1.90;;
17955;SDS011;27666;51.498;11.966;2023-05-16T16:11:50;3.80;;;1.83;;
17955;SDS011;27666;51.498;11.966;2023-05-16T16:14:39;5.05;;;2.03;;
17955;SDS011;27666;51.498;11.966;2023-05-16T16:17:27;3.97;;;1.63;;
17955;SDS011;27666;51.498;11.966;2023-05-16T16:20:14;6.60;;;1.90;;
17955;SDS011;27666;51.498;11.966;2023-05-16T16:23:00;3.85;;;1.83;;
17955;SDS011;27666;51.498;11.966;2023-05-16T16:25:46;5.55;;;3.15;;
17955;SDS011;27666;51.498;11.966;2023-05-16T16:28:34;5.28;;;1.88;;
17955;SDS011;27666;51.498;11.966;2023-05-16T16:31:20;13.82;;;2.50;;